Archival Weather

Central Park

Central Park, New York (KNYC)

Report from: Thursday, December 7, 2023 7:51 AM EST
Current time: Wednesday, April 24, 2024 3:34 PM EDT

Current weather – Weather history – Daily summaries
Weather forecast

Temperature0.6°C (33.1°F)
Wind chill-1.1°C (30.0°F)
Dew point-8.3°C (17.1°F)
Winds 3 kts (1.5 m/s, 3.5 mph) Vrb
Winds variableWinds variable
Visibility10 mi. (16.1 km)
Clouds Few clouds 12,000 ft. (3,658 m)
Altimeter30.08 in.Hg (1019 mB)
Relative humidity51 %
Density altitude-1,861 ft. (-567 m)
Sea-level pressure101.8 kPa (1018 mB, 30.06 in.Hg)
Remarks Fully automated report
System requires maintenance
Automated weather observing station with precipitation discriminator
Flight conditions Visual Meteorological Conditions
Raw dataKNYC 071251Z AUTO VRB03KT 10SM FEW120 01/M08 A3008 RMK AO2 SLP179 T00061083 $
An error has occurred. This application may no longer respond until reloaded. Reload 🗙